createdAt,value
2024-05-09T00:00:30.362Z,5.90
2024-05-09T00:03:02.384Z,5.85
2024-05-09T00:05:29.077Z,5.82
2024-05-09T00:07:55.681Z,5.82
2024-05-09T00:10:29.090Z,5.78
2024-05-09T00:13:02.532Z,5.72
2024-05-09T00:15:28.990Z,5.68
2024-05-09T00:17:55.640Z,5.65
2024-05-09T00:20:28.406Z,5.57
2024-05-09T00:23:01.778Z,5.53
2024-05-09T00:25:28.691Z,5.54
2024-05-09T00:27:55.148Z,5.52
2024-05-09T00:30:31.015Z,5.54
2024-05-09T00:33:01.344Z,5.54
2024-05-09T00:35:28.054Z,5.52
2024-05-09T00:37:54.578Z,5.49
2024-05-09T00:40:30.805Z,5.37
2024-05-09T00:43:07.810Z,5.33
2024-05-09T00:45:34.989Z,5.29
2024-05-09T00:48:03.856Z,5.17
2024-05-09T00:50:36.281Z,5.12
2024-05-09T00:53:05.825Z,5.04
2024-05-09T00:55:32.461Z,4.97
2024-05-09T00:57:59.036Z,4.89
2024-05-09T01:00:31.795Z,4.87
2024-05-09T01:03:05.642Z,4.87
2024-05-09T01:05:32.585Z,4.88
2024-05-09T01:07:59.234Z,4.91
2024-05-09T01:10:33.512Z,4.82
2024-05-09T01:13:02.589Z,4.78
2024-05-09T01:15:29.082Z,4.76
2024-05-09T01:17:56.498Z,4.70
2024-05-09T01:20:32.184Z,4.67
2024-05-09T01:23:07.417Z,4.69
2024-05-09T01:25:34.329Z,4.68
2024-05-09T01:28:01.285Z,4.67
2024-05-09T01:30:34.105Z,4.67
2024-05-09T01:33:03.587Z,4.71
2024-05-09T01:35:30.451Z,4.71
2024-05-09T01:37:57.034Z,4.72
2024-05-09T01:40:33.312Z,4.72
2024-05-09T01:43:04.491Z,4.72
2024-05-09T01:45:31.019Z,4.66
2024-05-09T01:47:57.622Z,4.65
2024-05-09T01:50:35.770Z,4.63
2024-05-09T01:53:05.717Z,4.60
2024-05-09T01:55:32.467Z,4.55
2024-05-09T01:57:58.941Z,4.46
2024-05-09T02:00:34.175Z,4.42
2024-05-09T02:03:08.752Z,4.42
2024-05-09T02:05:35.602Z,4.40
2024-05-09T02:08:02.248Z,4.42
2024-05-09T02:10:32.606Z,4.41
2024-05-09T02:12:59.879Z,4.38
2024-05-09T02:15:26.332Z,4.32
2024-05-09T02:17:53.041Z,4.28
2024-05-09T02:20:29.992Z,4.27
2024-05-09T02:23:02.457Z,4.24
2024-05-09T02:25:29.895Z,4.23
2024-05-09T02:27:56.383Z,4.17
2024-05-09T02:30:30.509Z,4.14
2024-05-09T02:33:05.447Z,4.12
2024-05-09T02:35:32.118Z,4.09
2024-05-09T02:37:58.696Z,4.02
2024-05-09T02:40:33.370Z,3.98
2024-05-09T02:43:03.706Z,3.95
2024-05-09T02:45:30.202Z,3.96
2024-05-09T02:47:56.900Z,3.93
2024-05-09T02:50:30.588Z,3.90
2024-05-09T02:53:04.305Z,3.85
2024-05-09T02:55:30.938Z,3.83
2024-05-09T02:57:57.555Z,3.84
2024-05-09T03:00:30.041Z,3.85
2024-05-09T03:03:04.970Z,3.84
2024-05-09T03:05:31.754Z,3.80
2024-05-09T03:07:58.399Z,3.76
2024-05-09T03:10:28.633Z,3.73
2024-05-09T03:12:55.798Z,3.73
2024-05-09T03:15:22.369Z,3.73
2024-05-09T03:17:49.288Z,3.74
2024-05-09T03:20:23.272Z,3.72
2024-05-09T03:22:52.718Z,3.70
2024-05-09T03:25:20.472Z,3.66
2024-05-09T03:27:46.934Z,3.62
2024-05-09T03:30:25.894Z,3.62
2024-05-09T03:32:59.992Z,3.60
2024-05-09T03:35:26.726Z,3.61
2024-05-09T03:37:53.323Z,3.58
2024-05-09T03:40:23.800Z,3.56
2024-05-09T03:42:53.033Z,3.56
2024-05-09T03:45:19.499Z,3.56
2024-05-09T03:47:46.280Z,3.58
2024-05-09T03:50:21.872Z,3.59
2024-05-09T03:52:52.435Z,3.58
2024-05-09T03:55:18.971Z,3.58
2024-05-09T03:57:45.455Z,3.60
2024-05-09T04:00:18.024Z,3.56
2024-05-09T04:02:52.310Z,3.46
2024-05-09T04:05:18.945Z,3.42
2024-05-09T04:07:45.533Z,3.42
2024-05-09T04:10:20.965Z,3.51
2024-05-09T04:12:54.238Z,3.59
2024-05-09T04:15:20.699Z,3.67
2024-05-09T04:17:47.309Z,3.86
2024-05-09T04:20:24.191Z,3.90
2024-05-09T04:22:59.756Z,3.90
2024-05-09T04:25:26.258Z,3.93
2024-05-09T04:27:52.744Z,3.97
2024-05-09T04:30:26.286Z,4.03
2024-05-09T04:33:02.235Z,4.08
2024-05-09T04:35:28.832Z,4.09
2024-05-09T04:37:55.357Z,4.21
2024-05-09T04:40:28.540Z,4.56
2024-05-09T04:43:00.176Z,4.77
2024-05-09T04:45:26.671Z,5.07
2024-05-09T04:47:53.968Z,5.20
2024-05-09T04:50:29.370Z,5.55
2024-05-09T04:53:02.245Z,6.03
2024-05-09T04:55:28.778Z,6.46
2024-05-09T04:57:55.264Z,6.98
2024-05-09T05:00:28.867Z,7.44
2024-05-09T05:03:02.003Z,7.83
2024-05-09T05:05:28.683Z,8.15
2024-05-09T05:07:55.227Z,8.41
2024-05-09T05:10:29.434Z,8.68
2024-05-09T05:13:01.753Z,8.91
2024-05-09T05:15:28.204Z,9.02
2024-05-09T05:17:54.802Z,9.08
2024-05-09T05:20:27.762Z,9.21
2024-05-09T05:22:59.660Z,9.30
2024-05-09T05:25:26.247Z,9.48
2024-05-09T05:27:52.757Z,9.69
2024-05-09T05:30:25.000Z,9.52
2024-05-09T05:32:55.637Z,9.16
2024-05-09T05:35:22.354Z,9.26
2024-05-09T05:37:48.935Z,9.60
2024-05-09T05:40:25.242Z,9.91
2024-05-09T05:42:59.306Z,10.25
2024-05-09T05:45:25.879Z,10.50
2024-05-09T05:47:54.658Z,10.78
2024-05-09T05:50:27.884Z,10.97
2024-05-09T05:53:01.621Z,11.14
2024-05-09T05:55:28.176Z,11.29
2024-05-09T05:57:54.859Z,11.45
2024-05-09T06:00:29.111Z,11.56
2024-05-09T06:03:01.780Z,11.67
2024-05-09T06:05:28.389Z,11.73
2024-05-09T06:07:54.929Z,11.77
2024-05-09T06:10:25.796Z,11.79
2024-05-09T06:12:56.734Z,11.76
2024-05-09T06:15:23.208Z,11.67
2024-05-09T06:17:49.876Z,11.51
2024-05-09T06:20:23.429Z,11.34
2024-05-09T06:22:54.073Z,11.23
2024-05-09T06:25:20.649Z,11.16
2024-05-09T06:27:47.127Z,11.13
2024-05-09T06:30:24.908Z,11.16
2024-05-09T06:32:56.221Z,11.21
2024-05-09T06:35:22.819Z,11.28
2024-05-09T06:37:49.353Z,11.28
2024-05-09T06:40:21.370Z,11.22
2024-05-09T06:42:52.007Z,11.24
2024-05-09T06:45:18.482Z,11.24
2024-05-09T06:47:45.142Z,11.34
2024-05-09T06:50:20.196Z,11.50
2024-05-09T06:52:50.527Z,11.69
2024-05-09T06:55:17.033Z,11.89
2024-05-09T06:57:43.519Z,12.01
2024-05-09T07:00:15.444Z,12.23
2024-05-09T07:02:45.305Z,12.34
2024-05-09T07:05:11.900Z,12.60
2024-05-09T07:07:38.419Z,12.96
2024-05-09T07:10:07.769Z,13.15
2024-05-09T07:12:36.422Z,13.12
2024-05-09T07:15:02.998Z,13.36
2024-05-09T07:17:29.785Z,13.62
2024-05-09T07:19:56.520Z,13.75
2024-05-09T07:22:23.007Z,13.94
2024-05-09T07:24:49.458Z,14.01
2024-05-09T07:27:15.923Z,13.84
2024-05-09T07:29:42.428Z,13.92
2024-05-09T07:32:09.392Z,14.27
2024-05-09T07:34:36.069Z,14.34
2024-05-09T07:37:02.787Z,14.32
2024-05-09T07:39:29.275Z,14.32
2024-05-09T07:41:55.735Z,14.20
2024-05-09T07:44:22.236Z,14.25
2024-05-09T07:47:48.768Z,14.16
2024-05-09T07:54:34.365Z,14.19
2024-05-09T07:57:01.019Z,14.35
2024-05-09T07:59:27.514Z,14.51
2024-05-09T08:01:54.046Z,14.65
2024-05-09T08:04:22.399Z,14.78
2024-05-09T08:06:49.538Z,14.91
2024-05-09T08:09:20.596Z,14.87
2024-05-09T08:11:47.800Z,14.95
2024-05-09T08:14:14.294Z,14.96
2024-05-09T08:16:40.778Z,15.05
2024-05-09T08:19:07.347Z,15.21
2024-05-09T08:21:33.906Z,15.36
2024-05-09T08:24:00.385Z,15.39
2024-05-09T08:26:26.842Z,15.52
2024-05-09T08:28:53.298Z,15.66
2024-05-09T08:31:19.835Z,15.71
2024-05-09T08:33:47.783Z,15.79
2024-05-09T08:36:14.701Z,15.88
2024-05-09T08:38:41.191Z,15.90
2024-05-09T08:41:07.717Z,16.06
2024-05-09T08:43:34.671Z,16.16
2024-05-09T08:46:02.637Z,16.20
2024-05-09T08:48:31.139Z,16.18
2024-05-09T08:50:57.814Z,16.04
2024-05-09T08:53:24.278Z,16.21
2024-05-09T08:55:51.327Z,16.42
2024-05-09T08:58:18.445Z,16.29
2024-05-09T09:00:46.552Z,16.24
2024-05-09T09:03:24.817Z,16.18
2024-05-09T09:05:58.976Z,16.47
2024-05-09T09:08:26.478Z,16.75
2024-05-09T09:10:57.481Z,16.82
2024-05-09T09:13:24.074Z,16.90
2024-05-09T09:15:50.712Z,16.92
2024-05-09T09:18:18.545Z,17.13
2024-05-09T09:20:45.581Z,17.09
2024-05-09T09:23:12.221Z,16.96
2024-05-09T09:25:42.203Z,16.70
2024-05-09T09:28:09.849Z,16.80
2024-05-09T09:30:43.213Z,16.98
2024-05-09T09:33:10.461Z,17.24
2024-05-09T09:35:40.014Z,17.11
2024-05-09T09:38:08.242Z,17.13
2024-05-09T09:40:44.997Z,16.93
2024-05-09T09:43:19.452Z,17.35
2024-05-09T09:45:49.660Z,17.66
2024-05-09T09:48:16.679Z,17.57
2024-05-09T09:50:43.512Z,17.24
2024-05-09T09:53:11.165Z,16.69
2024-05-09T09:55:39.628Z,16.66
2024-05-09T09:58:09.626Z,16.87
2024-05-09T10:00:38.487Z,17.16
2024-05-09T10:03:05.376Z,17.35
2024-05-09T10:05:33.603Z,17.69
2024-05-09T10:08:05.017Z,17.86
2024-05-09T10:10:34.585Z,18.11
2024-05-09T10:13:08.497Z,17.77
2024-05-09T10:15:54.101Z,17.56
2024-05-09T10:18:21.246Z,17.09
2024-05-09T10:20:48.040Z,16.57
2024-05-09T10:23:27.987Z,16.69
2024-05-09T10:26:04.812Z,16.98
2024-05-09T10:28:33.477Z,16.98
2024-05-09T10:31:02.008Z,16.99
2024-05-09T10:33:46.117Z,16.71
2024-05-09T10:36:26.086Z,16.89
2024-05-09T10:38:54.015Z,17.05
2024-05-09T10:41:22.776Z,17.17
2024-05-09T10:43:50.187Z,17.29
2024-05-09T10:46:17.237Z,17.39
2024-05-09T10:48:44.423Z,17.33
2024-05-09T10:51:13.023Z,17.35
2024-05-09T10:53:47.745Z,17.69
2024-05-09T10:56:14.731Z,18.04
2024-05-09T10:58:41.575Z,18.08
2024-05-09T11:01:08.702Z,17.97
2024-05-09T11:03:36.124Z,17.57
2024-05-09T11:06:03.135Z,17.26
2024-05-09T11:08:31.239Z,17.11
2024-05-09T11:10:57.972Z,16.79
2024-05-09T11:13:32.148Z,16.74
2024-05-09T11:15:59.860Z,16.99
2024-05-09T11:18:30.765Z,17.35
2024-05-09T11:21:00.300Z,17.66
2024-05-09T11:23:27.676Z,17.86
2024-05-09T11:25:55.613Z,17.99
2024-05-09T11:28:22.619Z,18.05
2024-05-09T11:30:50.868Z,17.92
2024-05-09T11:33:19.588Z,17.93
2024-05-09T11:35:47.091Z,18.14
2024-05-09T11:38:13.820Z,18.11
2024-05-09T11:40:40.550Z,17.99
2024-05-09T11:43:07.120Z,18.20
2024-05-09T11:45:33.728Z,18.27
2024-05-09T11:48:00.450Z,18.21
2024-05-09T11:50:30.329Z,18.22
2024-05-09T11:53:01.495Z,18.13
2024-05-09T11:55:28.607Z,18.11
2024-05-09T11:57:55.604Z,18.23
2024-05-09T12:00:29.628Z,18.17
2024-05-09T12:03:03.355Z,18.35
2024-05-09T12:05:29.963Z,18.55
2024-05-09T12:07:56.682Z,18.71
2024-05-09T12:10:32.062Z,18.82
2024-05-09T12:13:01.059Z,18.65
2024-05-09T12:15:27.604Z,18.57
2024-05-09T12:17:54.979Z,18.46
2024-05-09T12:20:28.785Z,18.23
2024-05-09T12:23:02.210Z,18.22
2024-05-09T12:25:28.678Z,18.25
2024-05-09T12:27:55.279Z,18.45
2024-05-09T12:30:32.532Z,18.81
2024-05-09T12:33:04.159Z,18.87
2024-05-09T12:35:30.735Z,18.79
2024-05-09T12:37:57.207Z,18.69
2024-05-09T12:40:31.826Z,18.65
2024-05-09T12:43:02.952Z,18.34
2024-05-09T12:45:29.468Z,18.57
2024-05-09T12:47:56.105Z,18.81
2024-05-09T12:50:29.891Z,18.84
2024-05-09T12:52:59.414Z,19.03
2024-05-09T12:55:25.899Z,19.10
2024-05-09T12:57:52.438Z,18.73
2024-05-09T13:00:24.092Z,18.52
2024-05-09T13:02:57.682Z,18.39
2024-05-09T13:05:24.671Z,18.28
2024-05-09T13:07:51.318Z,18.05
2024-05-09T13:10:25.808Z,17.97
2024-05-09T13:12:58.188Z,17.32
2024-05-09T13:15:24.694Z,17.11
2024-05-09T13:17:51.213Z,17.43
2024-05-09T13:20:26.097Z,17.83
2024-05-09T13:22:59.859Z,18.16
2024-05-09T13:25:26.324Z,18.30
2024-05-09T13:27:53.069Z,18.56
2024-05-09T13:30:28.731Z,18.84
2024-05-09T13:33:01.938Z,19.03
2024-05-09T13:35:28.536Z,19.06
2024-05-09T13:37:55.110Z,19.09
2024-05-09T13:40:29.990Z,19.12
2024-05-09T13:43:00.707Z,19.25
2024-05-09T13:45:27.197Z,19.34
2024-05-09T13:47:54.310Z,18.99
2024-05-09T13:50:30.530Z,18.79
2024-05-09T13:53:00.716Z,18.93
2024-05-09T13:55:27.203Z,19.09
2024-05-09T13:57:53.875Z,19.26
2024-05-09T14:00:37.208Z,19.20
2024-05-09T14:03:07.063Z,18.53
2024-05-09T14:05:33.809Z,18.18
2024-05-09T14:08:00.544Z,17.85
2024-05-09T14:12:55.102Z,17.49
2024-05-09T14:15:21.655Z,17.28
2024-05-09T14:17:48.154Z,17.26
2024-05-09T14:20:22.947Z,17.61
2024-05-09T14:22:55.194Z,17.90
2024-05-09T14:25:21.910Z,17.95
2024-05-09T14:27:48.416Z,18.15
2024-05-09T14:30:22.803Z,18.41
2024-05-09T14:32:57.085Z,18.54
2024-05-09T14:35:23.611Z,18.53
2024-05-09T14:37:50.089Z,18.05
2024-05-09T14:40:30.520Z,17.73
2024-05-09T14:43:03.273Z,17.58
2024-05-09T14:45:29.946Z,17.67
2024-05-09T14:47:56.770Z,17.80
2024-05-09T14:50:28.300Z,17.99
2024-05-09T14:53:01.530Z,18.00
2024-05-09T14:55:28.160Z,18.14
2024-05-09T14:57:54.715Z,18.19
2024-05-09T15:00:26.391Z,18.25
2024-05-09T15:02:59.424Z,18.32
2024-05-09T15:05:26.122Z,18.40
2024-05-09T15:07:52.704Z,18.54
2024-05-09T15:10:26.874Z,18.46
2024-05-09T15:13:00.495Z,18.19
2024-05-09T15:15:27.010Z,18.07
2024-05-09T15:17:54.726Z,17.99
2024-05-09T15:20:30.348Z,17.92
2024-05-09T15:23:00.984Z,17.95
2024-05-09T15:25:27.726Z,17.97
2024-05-09T15:27:54.790Z,17.85
2024-05-09T15:30:29.827Z,17.90
2024-05-09T15:32:58.896Z,17.92
2024-05-09T15:35:25.412Z,18.02
2024-05-09T15:37:51.883Z,18.09
2024-05-09T15:40:26.455Z,18.04
2024-05-09T15:43:02.147Z,17.99
2024-05-09T15:45:28.945Z,17.88
2024-05-09T15:47:56.904Z,17.76
2024-05-09T15:50:35.094Z,17.62
2024-05-09T15:53:05.724Z,17.48
2024-05-09T15:55:32.205Z,17.26
2024-05-09T15:58:02.902Z,16.92
2024-05-09T16:00:37.050Z,16.73
2024-05-09T16:03:07.430Z,16.61
2024-05-09T16:05:34.322Z,16.55
2024-05-09T16:08:00.917Z,16.54
2024-05-09T16:10:32.549Z,16.49
2024-05-09T16:13:00.950Z,16.42
2024-05-09T16:15:27.598Z,16.49
2024-05-09T16:17:54.172Z,16.54
2024-05-09T16:20:33.290Z,16.58
2024-05-09T16:23:05.013Z,16.65
2024-05-09T16:25:31.536Z,16.76
2024-05-09T16:27:58.213Z,16.81
2024-05-09T16:30:31.720Z,16.77
2024-05-09T16:33:01.865Z,16.68
2024-05-09T16:35:28.509Z,16.77
2024-05-09T16:37:55.063Z,16.84
2024-05-09T16:40:29.765Z,16.92
2024-05-09T16:43:03.731Z,16.89
2024-05-09T16:45:30.518Z,16.78
2024-05-09T16:47:57.359Z,16.73
2024-05-09T16:50:29.411Z,16.75
2024-05-09T16:52:59.342Z,16.74
2024-05-09T16:55:25.880Z,16.73
2024-05-09T16:57:52.696Z,16.66
2024-05-09T17:00:30.865Z,16.61
2024-05-09T17:03:06.035Z,16.62
2024-05-09T17:05:33.041Z,16.48
2024-05-09T17:07:59.967Z,16.46
2024-05-09T17:10:32.262Z,16.39
2024-05-09T17:13:00.996Z,16.34
2024-05-09T17:15:27.519Z,16.27
2024-05-09T17:17:54.085Z,16.18
2024-05-09T17:20:29.384Z,16.23
2024-05-09T17:23:00.273Z,16.24
2024-05-09T17:25:26.825Z,16.29
2024-05-09T17:27:53.806Z,16.26
2024-05-09T17:30:28.710Z,16.22
2024-05-09T17:33:00.966Z,16.14
2024-05-09T17:35:27.632Z,16.03
2024-05-09T17:37:54.242Z,15.92
2024-05-09T17:40:27.739Z,15.86
2024-05-09T17:42:59.647Z,15.87
2024-05-09T17:45:26.158Z,15.87
2024-05-09T17:47:52.933Z,15.80
2024-05-09T17:50:27.316Z,15.74
2024-05-09T17:53:00.249Z,15.70
2024-05-09T17:55:26.810Z,15.76
2024-05-09T17:57:53.445Z,15.75
2024-05-09T18:00:28.952Z,15.72
2024-05-09T18:03:03.649Z,15.74
2024-05-09T18:05:30.347Z,15.67
2024-05-09T18:07:57.244Z,15.71
2024-05-09T18:10:29.938Z,15.68
2024-05-09T18:13:02.290Z,15.60
2024-05-09T18:15:28.875Z,15.61
2024-05-09T18:17:55.458Z,15.59
2024-05-09T18:20:32.579Z,15.57
2024-05-09T18:23:07.227Z,15.51
2024-05-09T18:25:33.724Z,15.47
2024-05-09T18:28:02.527Z,15.39
2024-05-09T18:30:34.452Z,15.34
2024-05-09T18:33:03.455Z,15.27
2024-05-09T18:35:30.090Z,15.17
2024-05-09T18:37:56.737Z,15.08
2024-05-09T18:40:31.392Z,14.97
2024-05-09T18:43:01.904Z,14.89
2024-05-09T18:45:28.915Z,14.82
2024-05-09T18:47:55.883Z,14.71
2024-05-09T18:50:31.849Z,14.64
2024-05-09T18:53:02.510Z,14.55
2024-05-09T18:55:28.977Z,14.49
2024-05-09T18:57:55.489Z,14.38
2024-05-09T19:00:31.564Z,14.29
2024-05-09T19:03:02.662Z,14.21
2024-05-09T19:05:29.528Z,14.17
2024-05-09T19:07:56.507Z,14.14
2024-05-09T19:10:26.306Z,14.08
2024-05-09T19:12:58.600Z,13.96
2024-05-09T19:15:25.117Z,13.93
2024-05-09T19:17:51.810Z,13.88
2024-05-09T19:20:25.260Z,13.80
2024-05-09T19:22:57.878Z,13.71
2024-05-09T19:25:24.362Z,13.64
2024-05-09T19:27:50.959Z,13.59
2024-05-09T19:30:25.427Z,13.55
2024-05-09T19:33:00.916Z,13.47
2024-05-09T19:35:27.516Z,13.39
2024-05-09T19:37:54.056Z,13.30
2024-05-09T19:40:28.625Z,13.28
2024-05-09T19:42:58.442Z,13.21
2024-05-09T19:45:25.058Z,13.10
2024-05-09T19:47:51.772Z,13.06
2024-05-09T19:50:26.620Z,12.97
2024-05-09T19:52:59.254Z,12.88
2024-05-09T19:55:25.764Z,12.82
2024-05-09T19:57:52.273Z,12.76
2024-05-09T20:00:25.979Z,12.74
2024-05-09T20:02:56.243Z,12.72
2024-05-09T20:05:23.301Z,12.67
2024-05-09T20:07:50.187Z,12.61
2024-05-09T20:10:23.454Z,12.54
2024-05-09T20:12:53.193Z,12.45
2024-05-09T20:15:19.731Z,12.36
2024-05-09T20:17:46.373Z,12.17
2024-05-09T20:20:23.500Z,12.08
2024-05-09T20:22:55.195Z,12.04
2024-05-09T20:25:21.731Z,12.00
2024-05-09T20:27:48.272Z,11.96
2024-05-09T20:30:21.355Z,11.89
2024-05-09T20:32:54.558Z,11.82
2024-05-09T20:35:21.172Z,11.70
2024-05-09T20:37:47.710Z,11.65
2024-05-09T20:40:21.233Z,11.61
2024-05-09T20:42:52.171Z,11.64
2024-05-09T20:45:18.707Z,11.64
2024-05-09T20:47:45.281Z,11.61
2024-05-09T20:50:20.587Z,11.57
2024-05-09T20:52:55.148Z,11.51
2024-05-09T20:55:21.744Z,11.42
2024-05-09T20:57:48.323Z,11.36
2024-05-09T21:00:18.540Z,11.38
2024-05-09T21:02:45.848Z,11.40
2024-05-09T21:05:13.515Z,11.39
2024-05-09T21:07:40.006Z,11.33
2024-05-09T21:10:15.179Z,11.27
2024-05-09T21:12:45.815Z,11.24
2024-05-09T21:15:12.367Z,11.19
2024-05-09T21:17:38.964Z,11.21
2024-05-09T21:20:11.427Z,11.15
2024-05-09T21:22:43.294Z,11.00
2024-05-09T21:25:09.894Z,10.95
2024-05-09T21:27:36.450Z,10.91
2024-05-09T21:30:04.384Z,10.84
2024-05-09T21:32:32.484Z,10.82
2024-05-09T21:34:59.007Z,10.75
2024-05-09T21:37:25.491Z,10.79
2024-05-09T21:39:51.994Z,10.78
2024-05-09T21:42:18.514Z,10.71
2024-05-09T21:44:44.987Z,10.65
2024-05-09T21:47:11.503Z,10.61
2024-05-09T21:49:38.022Z,10.56
2024-05-09T21:52:04.909Z,10.55
2024-05-09T21:54:31.806Z,10.53
2024-05-09T21:56:58.297Z,10.54
2024-05-09T21:59:24.835Z,10.52
2024-05-09T22:01:51.564Z,10.50
2024-05-09T22:04:18.167Z,10.47
2024-05-09T22:06:44.714Z,10.41
2024-05-09T22:09:11.180Z,10.37
2024-05-09T22:11:37.761Z,10.35
2024-05-09T22:14:04.269Z,10.34
2024-05-09T22:16:31.398Z,10.29
2024-05-09T22:18:58.085Z,10.23
2024-05-09T22:21:24.706Z,10.23
2024-05-09T22:23:52.123Z,10.25
2024-05-09T22:26:18.590Z,10.27
2024-05-09T22:28:45.050Z,10.26
2024-05-09T22:31:11.549Z,10.22
2024-05-09T22:33:38.287Z,10.14
2024-05-09T22:36:07.385Z,10.05
2024-05-09T22:38:33.908Z,9.96
2024-05-09T22:41:00.520Z,9.92
2024-05-09T22:43:27.151Z,9.91
2024-05-09T22:45:53.885Z,9.90
2024-05-09T22:48:20.749Z,9.87
2024-05-09T22:50:47.365Z,9.81
2024-05-09T22:53:13.883Z,9.73
2024-05-09T22:55:40.417Z,9.68
2024-05-09T22:58:07.002Z,9.68
2024-05-09T23:00:33.824Z,9.70
2024-05-09T23:03:01.629Z,9.68
2024-05-09T23:05:28.830Z,9.64
2024-05-09T23:07:55.597Z,9.55
2024-05-09T23:10:30.801Z,9.54
2024-05-09T23:13:01.735Z,9.51
2024-05-09T23:15:28.583Z,9.50
2024-05-09T23:17:55.212Z,9.43
2024-05-09T23:20:32.804Z,9.38
2024-05-09T23:23:04.215Z,9.36
2024-05-09T23:25:30.710Z,9.33
2024-05-09T23:27:57.315Z,9.27
2024-05-09T23:30:33.309Z,9.26
2024-05-09T23:33:04.660Z,9.24
2024-05-09T23:35:31.227Z,9.18
2024-05-09T23:37:57.732Z,9.13
2024-05-09T23:40:34.652Z,9.07
2024-05-09T23:43:05.075Z,9.07
2024-05-09T23:45:31.601Z,9.03
2024-05-09T23:47:58.108Z,8.96
2024-05-09T23:50:33.100Z,8.91
2024-05-09T23:53:02.884Z,8.87
2024-05-09T23:55:29.426Z,8.85
2024-05-09T23:57:55.962Z,8.82
